createdAt,value
2023-03-17T00:01:09.735Z,6.00
2023-03-17T00:03:38.399Z,4.50
2023-03-17T00:06:06.826Z,5.00
2023-03-17T00:08:37.161Z,5.00
2023-03-17T00:11:06.250Z,3.50
2023-03-17T00:13:35.352Z,4.50
2023-03-17T00:16:04.008Z,4.00
2023-03-17T00:18:33.470Z,5.00
2023-03-17T00:21:01.724Z,4.00
2023-03-17T00:23:29.972Z,5.00
2023-03-17T00:25:59.355Z,5.00
2023-03-17T00:28:27.975Z,5.00
2023-03-17T00:30:57.045Z,4.00
2023-03-17T00:33:25.597Z,4.00
2023-03-17T00:35:53.608Z,4.00
2023-03-17T00:38:22.055Z,4.00
2023-03-17T00:40:51.173Z,5.00
2023-03-17T00:43:20.681Z,4.00
2023-03-17T00:45:49.470Z,4.25
2023-03-17T00:48:18.714Z,4.00
2023-03-17T00:50:47.588Z,3.75
2023-03-17T00:53:16.709Z,4.00
2023-03-17T00:55:45.407Z,4.00
2023-03-17T00:58:14.954Z,3.75
2023-03-17T01:00:44.551Z,3.75
2023-03-17T01:03:13.595Z,4.00
2023-03-17T01:05:41.667Z,3.00
2023-03-17T01:08:10.382Z,4.00
2023-03-17T01:10:38.580Z,3.00
2023-03-17T01:13:06.663Z,4.75
2023-03-17T01:15:34.805Z,3.00
2023-03-17T01:18:04.165Z,3.00
2023-03-17T01:20:33.856Z,4.00
2023-03-17T01:23:02.236Z,3.00
2023-03-17T01:25:30.281Z,3.25
2023-03-17T01:27:59.228Z,3.25
2023-03-17T01:30:29.012Z,4.00
2023-03-17T01:32:57.409Z,3.00
2023-03-17T01:35:29.393Z,3.00
2023-03-17T01:37:58.251Z,3.00
2023-03-17T01:40:27.976Z,3.50
2023-03-17T01:43:00.408Z,3.00
2023-03-17T01:46:05.195Z,3.00
2023-03-17T01:48:35.456Z,3.00
2023-03-17T01:51:06.323Z,3.00
2023-03-17T01:53:34.706Z,3.00
2023-03-17T01:56:02.840Z,2.25
2023-03-17T01:58:30.735Z,3.00
2023-03-17T02:00:58.946Z,3.00
2023-03-17T02:03:28.078Z,2.75
2023-03-17T02:05:56.508Z,3.00
2023-03-17T02:08:26.292Z,3.50
2023-03-17T02:10:54.492Z,2.75
2023-03-17T02:13:22.848Z,3.00
2023-03-17T02:15:51.380Z,2.75
2023-03-17T02:18:21.017Z,3.00
2023-03-17T02:21:31.314Z,3.00
2023-03-17T02:24:00.257Z,3.00
2023-03-17T02:26:28.224Z,2.50
2023-03-17T02:28:56.957Z,3.00
2023-03-17T02:31:25.642Z,3.00
2023-03-17T02:33:53.646Z,2.00
2023-03-17T02:36:21.949Z,3.00
2023-03-17T02:38:52.275Z,2.00
2023-03-17T02:41:20.168Z,2.00
2023-03-17T02:43:48.064Z,3.00
2023-03-17T02:46:16.879Z,3.00
2023-03-17T02:48:45.101Z,3.00
2023-03-17T02:51:13.432Z,3.50
2023-03-17T02:53:41.313Z,2.00
2023-03-17T02:56:10.841Z,2.00
2023-03-17T02:58:38.699Z,2.50
2023-03-17T03:01:07.076Z,2.50
2023-03-17T03:03:35.089Z,2.00
2023-03-17T03:06:03.368Z,2.00
2023-03-17T03:08:31.635Z,2.00
2023-03-17T03:11:00.376Z,2.50
2023-03-17T03:13:29.711Z,2.25
2023-03-17T03:15:57.700Z,3.00
2023-03-17T03:18:26.088Z,2.00
2023-03-17T03:20:54.232Z,2.50
2023-03-17T03:23:22.148Z,2.00
2023-03-17T03:25:50.036Z,2.00
2023-03-17T03:28:17.954Z,2.00
2023-03-17T03:30:47.592Z,2.25
2023-03-17T03:33:15.566Z,2.00
2023-03-17T03:35:44.396Z,2.50
2023-03-17T03:38:12.599Z,2.00
2023-03-17T03:40:40.756Z,2.00
2023-03-17T03:43:21.785Z,2.00
2023-03-17T03:45:52.002Z,2.00
2023-03-17T03:48:20.029Z,2.00
2023-03-17T03:50:48.299Z,2.00
2023-03-17T03:53:16.275Z,2.00
2023-03-17T03:55:44.161Z,2.00
2023-03-17T03:58:12.287Z,2.00
2023-03-17T04:00:40.690Z,2.00
2023-03-17T04:03:10.203Z,1.50
2023-03-17T04:05:38.229Z,2.00
2023-03-17T04:08:06.762Z,2.00
2023-03-17T04:10:35.006Z,2.00
2023-03-17T04:13:02.961Z,3.00
2023-03-17T04:15:31.215Z,2.00
2023-03-17T04:17:59.130Z,2.00
2023-03-17T04:20:29.166Z,2.50
2023-03-17T04:22:57.376Z,2.00
2023-03-17T04:25:25.283Z,2.00
2023-03-17T04:27:53.196Z,3.00
2023-03-17T04:30:21.373Z,2.00
2023-03-17T04:32:49.301Z,2.00
2023-03-17T04:35:18.182Z,2.00
2023-03-17T04:37:48.520Z,2.75
2023-03-17T04:40:17.153Z,2.50
2023-03-17T04:42:45.059Z,2.00
2023-03-17T04:45:14.075Z,2.00
2023-03-17T04:47:42.102Z,2.00
2023-03-17T04:50:11.774Z,2.00
2023-03-17T04:52:39.847Z,2.00
2023-03-17T04:55:10.070Z,2.00
2023-03-17T04:57:37.963Z,2.00
2023-03-17T05:00:09.890Z,1.50
2023-03-17T05:02:38.972Z,2.00
2023-03-17T05:05:07.051Z,2.00
2023-03-17T05:07:34.981Z,1.75
2023-03-17T05:10:03.210Z,1.50
2023-03-17T05:12:32.511Z,2.00
2023-03-17T05:15:00.556Z,2.00
2023-03-17T05:17:28.418Z,1.50
2023-03-17T05:19:56.617Z,1.75
2023-03-17T05:22:25.948Z,2.00
2023-03-17T05:24:54.037Z,1.75
2023-03-17T05:27:22.651Z,2.00
2023-03-17T05:29:52.530Z,2.25
2023-03-17T05:32:20.977Z,2.00
2023-03-17T05:34:48.931Z,2.75
2023-03-17T05:37:17.451Z,2.00
2023-03-17T05:39:45.640Z,3.00
2023-03-17T05:42:13.877Z,3.00
2023-03-17T05:44:41.822Z,3.00
2023-03-17T05:47:11.283Z,4.00
2023-03-17T05:49:39.454Z,4.00
2023-03-17T05:52:07.638Z,4.75
2023-03-17T05:54:35.509Z,4.75
2023-03-17T05:57:03.936Z,4.00
2023-03-17T05:59:32.160Z,5.00
2023-03-17T06:02:00.370Z,5.00
2023-03-17T06:04:29.730Z,7.00
2023-03-17T06:06:57.828Z,5.25
2023-03-17T06:09:26.054Z,6.50
2023-03-17T06:11:54.010Z,5.00
2023-03-17T06:14:21.927Z,7.00
2023-03-17T06:16:49.837Z,7.00
2023-03-17T06:19:18.049Z,6.25
2023-03-17T06:21:47.379Z,7.00
2023-03-17T06:24:15.363Z,7.25
2023-03-17T06:26:43.560Z,6.00
2023-03-17T06:29:12.747Z,7.00
2023-03-17T06:31:42.189Z,6.25
2023-03-17T06:34:10.124Z,6.75
2023-03-17T06:36:39.193Z,7.50
2023-03-17T06:39:09.548Z,6.00
2023-03-17T06:41:37.531Z,6.50
2023-03-17T06:44:06.332Z,7.00
2023-03-17T06:46:34.294Z,6.00
2023-03-17T06:49:03.367Z,6.00
2023-03-17T06:51:32.464Z,7.25
2023-03-17T06:54:00.828Z,7.25
2023-03-17T06:56:30.822Z,6.50
2023-03-17T06:58:59.309Z,6.00
2023-03-17T07:01:27.403Z,6.00
2023-03-17T07:03:55.809Z,6.00
2023-03-17T07:06:24.442Z,6.00
2023-03-17T07:08:52.584Z,6.25
2023-03-17T07:11:20.659Z,6.25
2023-03-17T07:13:51.009Z,6.75
2023-03-17T07:16:19.615Z,5.00
2023-03-17T07:18:47.958Z,6.00
2023-03-17T07:21:15.916Z,6.00
2023-03-17T07:23:43.833Z,5.00
2023-03-17T07:26:11.754Z,6.00
2023-03-17T07:28:41.121Z,6.00
2023-03-17T07:31:14.132Z,6.00
2023-03-17T07:33:42.554Z,5.00
2023-03-17T07:36:10.948Z,5.00
2023-03-17T07:38:38.928Z,6.00
2023-03-17T07:41:09.950Z,5.00
2023-03-17T07:43:38.762Z,5.00
2023-03-17T07:46:07.454Z,5.00
2023-03-17T07:48:41.103Z,4.25
2023-03-17T07:51:12.535Z,5.25
2023-03-17T07:53:40.543Z,5.00
2023-03-17T07:56:08.984Z,4.50
2023-03-17T07:58:36.934Z,4.00
2023-03-17T08:01:05.352Z,4.00
2023-03-17T08:03:33.366Z,5.00
2023-03-17T08:06:03.890Z,4.50
2023-03-17T08:08:32.512Z,5.25
2023-03-17T08:11:03.587Z,4.00
2023-03-17T08:13:31.642Z,5.00
2023-03-17T08:15:59.644Z,4.75
2023-03-17T08:18:28.161Z,4.00
2023-03-17T08:20:56.397Z,5.00
2023-03-17T08:23:25.746Z,4.25
2023-03-17T08:25:57.926Z,3.75
2023-03-17T08:28:25.906Z,4.00
2023-03-17T08:30:54.406Z,4.00
2023-03-17T08:33:22.627Z,3.50
2023-03-17T08:35:51.084Z,4.00
2023-03-17T08:38:19.001Z,4.25
2023-03-17T08:40:50.564Z,3.75
2023-03-17T08:43:18.771Z,3.75
2023-03-17T08:45:46.814Z,4.00
2023-03-17T08:48:15.336Z,4.00
2023-03-17T08:50:45.307Z,3.50
2023-03-17T08:53:14.195Z,3.50
2023-03-17T08:55:42.302Z,3.25
2023-03-17T08:58:11.620Z,3.00
2023-03-17T09:00:40.848Z,4.00
2023-03-17T09:03:08.762Z,4.00
2023-03-17T09:05:38.441Z,3.00
2023-03-17T09:08:07.577Z,3.25
2023-03-17T09:10:35.845Z,4.00
2023-03-17T09:13:04.758Z,3.00
2023-03-17T09:15:34.790Z,4.00
2023-03-17T09:18:03.255Z,3.25
2023-03-17T09:20:31.750Z,3.00
2023-03-17T09:22:59.839Z,3.00
2023-03-17T09:25:27.946Z,3.00
2023-03-17T09:27:56.534Z,3.00
2023-03-17T09:30:26.892Z,3.00
2023-03-17T09:32:56.291Z,3.75
2023-03-17T09:35:24.201Z,3.00
2023-03-17T09:37:52.109Z,3.00
2023-03-17T09:40:21.255Z,3.25
2023-03-17T09:42:54.604Z,4.00
2023-03-17T09:45:31.517Z,3.00
2023-03-17T09:48:32.491Z,3.25
2023-03-17T09:51:02.988Z,2.50
2023-03-17T09:53:34.641Z,3.00
2023-03-17T09:56:05.081Z,3.00
2023-03-17T09:58:34.273Z,3.25
2023-03-17T10:01:03.122Z,3.00
2023-03-17T10:03:32.545Z,3.00
2023-03-17T10:06:10.465Z,3.25
2023-03-17T10:08:39.990Z,2.25
2023-03-17T10:11:10.938Z,3.00
2023-03-17T10:13:48.434Z,3.00
2023-03-17T10:16:18.761Z,3.50
2023-03-17T10:18:50.545Z,2.00
2023-03-17T10:21:19.991Z,3.00
2023-03-17T10:23:47.872Z,3.00
2023-03-17T10:26:23.094Z,2.00
2023-03-17T10:28:51.579Z,2.00
2023-03-17T10:31:21.246Z,2.75
2023-03-17T10:33:52.490Z,3.00
2023-03-17T10:36:34.725Z,2.75
2023-03-17T10:39:05.434Z,2.00
2023-03-17T10:41:33.748Z,3.00
2023-03-17T10:44:01.716Z,1.75
2023-03-17T10:46:31.116Z,3.00
2023-03-17T10:49:05.781Z,2.50
2023-03-17T10:51:35.462Z,2.50
2023-03-17T10:54:04.203Z,3.00
2023-03-17T10:56:34.225Z,2.00
2023-03-17T10:59:06.385Z,2.00
2023-03-17T11:01:38.312Z,3.00
2023-03-17T11:04:33.294Z,3.00
2023-03-17T11:07:02.200Z,2.25
2023-03-17T11:09:32.656Z,3.00
2023-03-17T11:12:02.984Z,2.00
2023-03-17T11:14:31.101Z,2.50
2023-03-17T11:17:01.009Z,2.25
2023-03-17T11:19:36.888Z,2.75
2023-03-17T11:22:07.408Z,2.00
2023-03-17T11:24:37.354Z,3.00
2023-03-17T11:27:08.661Z,3.00
2023-03-17T11:29:43.614Z,3.00
2023-03-17T11:32:20.870Z,3.00
2023-03-17T11:35:04.869Z,3.00
2023-03-17T11:37:48.286Z,2.25
2023-03-17T11:40:19.238Z,3.00
2023-03-17T11:42:50.559Z,2.75
2023-03-17T11:45:25.207Z,2.00
2023-03-17T11:48:11.475Z,2.00
2023-03-17T11:50:43.763Z,2.00
2023-03-17T11:53:25.533Z,2.00
2023-03-17T11:55:55.832Z,2.00
2023-03-17T11:58:28.634Z,2.50
2023-03-17T12:00:58.213Z,2.25
2023-03-17T12:03:30.013Z,2.00
2023-03-17T12:06:01.949Z,2.00
2023-03-17T12:08:31.453Z,2.00
2023-03-17T12:11:01.074Z,2.00
2023-03-17T12:13:32.662Z,2.00
2023-03-17T12:16:04.248Z,2.00
2023-03-17T12:18:33.956Z,2.00
2023-03-17T12:21:06.488Z,2.00
2023-03-17T12:23:38.310Z,2.00
2023-03-17T12:26:07.481Z,2.00
2023-03-17T12:28:37.877Z,2.00
2023-03-17T12:31:07.248Z,2.00
2023-03-17T12:33:38.029Z,2.00
2023-03-17T12:36:08.044Z,2.00
2023-03-17T12:38:37.422Z,2.00
2023-03-17T12:41:33.560Z,2.00
2023-03-17T12:44:05.579Z,2.25
2023-03-17T12:46:44.122Z,2.00
2023-03-17T12:49:53.659Z,2.00
2023-03-17T12:52:41.624Z,2.00
2023-03-17T12:55:12.999Z,2.00
2023-03-17T12:57:45.927Z,2.00
2023-03-17T13:00:20.688Z,2.00
2023-03-17T13:02:51.291Z,2.00
2023-03-17T13:05:19.698Z,2.00
2023-03-17T13:07:52.593Z,1.50
2023-03-17T13:10:41.956Z,2.00
2023-03-17T13:13:15.380Z,2.00
2023-03-17T13:15:58.400Z,2.00
2023-03-17T13:18:53.748Z,2.00
2023-03-17T13:21:25.164Z,2.00
2023-03-17T13:23:59.352Z,2.00
2023-03-17T13:26:55.316Z,2.00
2023-03-17T13:29:28.546Z,2.00
2023-03-17T13:32:44.053Z,2.00
2023-03-17T13:35:17.193Z,2.00
2023-03-17T13:37:54.456Z,1.75
2023-03-17T13:40:24.050Z,1.00
2023-03-17T13:42:58.341Z,2.00
2023-03-17T13:45:39.560Z,2.00
2023-03-17T13:48:27.298Z,2.00
2023-03-17T13:51:03.284Z,2.00
2023-03-17T13:53:33.139Z,2.00
2023-03-17T13:56:23.010Z,2.00
2023-03-17T13:59:22.671Z,2.00
2023-03-17T14:01:53.257Z,2.00
2023-03-17T14:04:22.872Z,2.00
2023-03-17T14:06:51.616Z,2.75
2023-03-17T14:09:26.759Z,2.00
2023-03-17T14:11:56.148Z,2.00
2023-03-17T14:14:32.857Z,2.00
2023-03-17T14:17:03.800Z,2.00
2023-03-17T14:19:32.281Z,1.75
2023-03-17T14:22:04.254Z,2.00
2023-03-17T14:24:33.239Z,1.50
2023-03-17T14:27:08.003Z,2.00
2023-03-17T14:29:35.933Z,2.00
2023-03-17T14:32:05.636Z,2.75
2023-03-17T14:34:33.945Z,2.00
2023-03-17T14:37:02.696Z,2.00
2023-03-17T14:39:31.115Z,2.00
2023-03-17T14:42:00.409Z,2.00
2023-03-17T14:44:29.931Z,2.25
2023-03-17T14:47:04.265Z,2.00
2023-03-17T14:49:33.494Z,2.00
2023-03-17T14:52:02.600Z,1.00
2023-03-17T14:54:32.402Z,2.00
2023-03-17T14:57:03.312Z,2.00
2023-03-17T14:59:35.012Z,2.25
2023-03-17T15:02:03.785Z,2.00
2023-03-17T15:04:32.897Z,3.00
2023-03-17T15:07:01.702Z,2.00
2023-03-17T15:09:31.726Z,2.00
2023-03-17T15:12:01.993Z,2.00
2023-03-17T15:14:30.853Z,2.25
2023-03-17T15:17:02.058Z,2.00
2023-03-17T15:19:31.094Z,2.00
2023-03-17T15:22:00.472Z,2.00
2023-03-17T15:24:39.205Z,2.00
2023-03-17T15:27:08.119Z,2.00
2023-03-17T15:29:36.289Z,2.00
2023-03-17T15:32:11.954Z,3.00
2023-03-17T15:34:39.887Z,2.50
2023-03-17T15:37:21.391Z,3.00
2023-03-17T15:39:50.440Z,2.00
2023-03-17T15:42:21.550Z,2.00
2023-03-17T15:44:49.434Z,2.00
2023-03-17T15:47:19.354Z,2.00
2023-03-17T15:49:47.585Z,2.25
2023-03-17T15:52:17.107Z,2.75
2023-03-17T15:54:45.043Z,2.75
2023-03-17T15:57:13.630Z,2.00
2023-03-17T15:59:41.894Z,2.00
2023-03-17T16:02:24.709Z,2.50
2023-03-17T16:04:52.653Z,3.00
2023-03-17T16:07:21.263Z,3.00
2023-03-17T16:09:49.502Z,2.00
2023-03-17T16:12:17.509Z,2.00
2023-03-17T16:14:45.743Z,2.00
2023-03-17T16:17:18.254Z,2.00
2023-03-17T16:19:47.908Z,2.00
2023-03-17T16:22:39.816Z,2.00
2023-03-17T16:25:22.898Z,2.25
2023-03-17T16:27:50.946Z,2.00
2023-03-17T16:30:19.887Z,2.50
2023-03-17T16:32:47.838Z,3.00
2023-03-17T16:35:18.437Z,2.00
2023-03-17T16:37:46.621Z,2.00
2023-03-17T16:40:19.849Z,2.00
2023-03-17T16:42:47.969Z,2.00
2023-03-17T16:45:17.002Z,3.00
2023-03-17T16:47:44.906Z,2.75
2023-03-17T16:50:18.454Z,2.75
2023-03-17T16:52:46.376Z,3.00
2023-03-17T16:55:14.543Z,3.00
2023-03-17T16:57:42.817Z,3.00
2023-03-17T17:00:15.496Z,3.00
2023-03-17T17:02:43.674Z,3.00
2023-03-17T17:05:15.526Z,2.75
2023-03-17T17:07:45.069Z,3.00
2023-03-17T17:10:13.668Z,3.00
2023-03-17T17:12:41.615Z,2.00
2023-03-17T17:15:11.566Z,2.50
2023-03-17T17:17:39.971Z,2.25
2023-03-17T17:20:12.219Z,2.00
2023-03-17T17:22:40.165Z,2.75
2023-03-17T17:25:10.498Z,2.00
2023-03-17T17:27:38.772Z,2.25
2023-03-17T17:30:10.746Z,2.25
2023-03-17T17:32:38.783Z,2.00
2023-03-17T17:35:07.613Z,2.00
2023-03-17T17:37:35.532Z,3.00
2023-03-17T17:40:03.784Z,2.75
2023-03-17T17:42:33.211Z,2.50
2023-03-17T17:45:01.163Z,2.00
2023-03-17T17:47:32.115Z,3.00
2023-03-17T17:50:00.737Z,2.00
2023-03-17T17:52:28.994Z,3.00
2023-03-17T17:54:57.234Z,3.00
2023-03-17T17:57:25.349Z,2.00
2023-03-17T17:59:55.005Z,3.00
2023-03-17T18:02:23.185Z,3.00
2023-03-17T18:04:51.572Z,2.50
2023-03-17T18:07:19.548Z,3.00
2023-03-17T18:09:48.792Z,2.00
2023-03-17T18:12:17.143Z,3.00
2023-03-17T18:14:45.045Z,2.50
2023-03-17T18:17:21.775Z,3.00
2023-03-17T18:19:50.039Z,2.50
2023-03-17T18:22:18.033Z,3.00
2023-03-17T18:24:46.520Z,2.25
2023-03-17T18:27:14.454Z,3.00
2023-03-17T18:29:43.373Z,2.00
2023-03-17T18:32:11.517Z,2.50
2023-03-17T18:34:43.458Z,2.75
2023-03-17T18:37:11.554Z,3.00
2023-03-17T18:39:40.911Z,3.25
2023-03-17T18:42:08.931Z,3.25
2023-03-17T18:44:36.853Z,3.00
2023-03-17T18:47:04.888Z,3.75
2023-03-17T18:49:32.790Z,4.00
2023-03-17T18:52:02.125Z,3.00
2023-03-17T18:54:30.006Z,3.00
2023-03-17T18:56:57.918Z,3.00
2023-03-17T18:59:26.218Z,3.50
2023-03-17T19:01:54.312Z,3.00
2023-03-17T19:04:22.266Z,4.00
2023-03-17T19:06:50.254Z,3.00
2023-03-17T19:09:19.969Z,3.75
2023-03-17T19:11:47.871Z,3.50
2023-03-17T19:14:16.305Z,3.00
2023-03-17T19:16:45.034Z,3.00
2023-03-17T19:19:13.052Z,3.00
2023-03-17T19:21:41.189Z,3.00
2023-03-17T19:24:11.859Z,4.00
2023-03-17T19:26:41.582Z,4.00
2023-03-17T19:29:09.998Z,4.75
2023-03-17T19:31:41.378Z,4.00
2023-03-17T19:34:09.844Z,4.00
2023-03-17T19:36:38.033Z,5.00
2023-03-17T19:39:06.440Z,5.50
2023-03-17T19:41:34.498Z,4.00
2023-03-17T19:44:05.695Z,5.50
2023-03-17T19:46:33.724Z,5.00
2023-03-17T19:49:01.709Z,5.25
2023-03-17T19:51:29.790Z,5.00
2023-03-17T19:53:57.835Z,4.25
2023-03-17T19:56:25.889Z,5.75
2023-03-17T19:58:55.448Z,6.00
2023-03-17T20:01:24.856Z,5.75
2023-03-17T20:03:52.869Z,5.00
2023-03-17T20:06:20.885Z,5.75
2023-03-17T20:08:49.146Z,6.00
2023-03-17T20:11:17.026Z,5.00
2023-03-17T20:13:44.937Z,5.00
2023-03-17T20:16:13.781Z,4.25
2023-03-17T20:18:43.056Z,6.00
2023-03-17T20:21:13.084Z,5.50
2023-03-17T20:23:41.131Z,6.00
2023-03-17T20:26:09.262Z,5.50
2023-03-17T20:28:38.654Z,6.00
2023-03-17T20:31:08.020Z,5.75
2023-03-17T20:33:36.091Z,5.00
2023-03-17T20:36:06.207Z,5.00
2023-03-17T20:38:36.908Z,5.00
2023-03-17T20:41:09.412Z,5.25
2023-03-17T20:43:37.616Z,5.00
2023-03-17T20:46:08.505Z,5.25
2023-03-17T20:48:37.132Z,5.00
2023-03-17T20:51:07.085Z,5.00
2023-03-17T20:53:36.206Z,5.75
2023-03-17T20:56:04.775Z,5.50
2023-03-17T20:58:32.859Z,5.00
2023-03-17T21:01:01.905Z,5.50
2023-03-17T21:03:29.978Z,5.25
2023-03-17T21:05:57.998Z,5.25
2023-03-17T21:08:27.663Z,5.00
2023-03-17T21:10:55.848Z,5.00
2023-03-17T21:13:23.780Z,4.25
2023-03-17T21:15:51.751Z,4.00
2023-03-17T21:18:19.657Z,6.00
2023-03-17T21:20:49.384Z,5.00
2023-03-17T21:23:17.345Z,5.00
2023-03-17T21:25:47.844Z,5.00
2023-03-17T21:28:15.815Z,4.50
2023-03-17T21:30:43.824Z,4.75
2023-03-17T21:33:11.864Z,6.00
2023-03-17T21:35:39.866Z,4.25
2023-03-17T21:38:08.050Z,5.25
2023-03-17T21:40:36.363Z,5.00
2023-03-17T21:43:05.727Z,5.00
2023-03-17T21:45:33.846Z,5.00
2023-03-17T21:48:01.817Z,4.00
2023-03-17T21:50:30.798Z,5.00
2023-03-17T21:52:58.823Z,4.75
2023-03-17T21:55:27.212Z,4.75
2023-03-17T21:57:55.709Z,5.00
2023-03-17T22:00:27.191Z,5.00
2023-03-17T22:02:57.175Z,5.00
2023-03-17T22:05:25.124Z,5.00
2023-03-17T22:07:53.208Z,5.00
2023-03-17T22:10:21.512Z,5.00
2023-03-17T22:12:49.675Z,5.00
2023-03-17T22:15:17.794Z,5.50
2023-03-17T22:17:47.673Z,5.00
2023-03-17T22:20:15.780Z,5.00
2023-03-17T22:22:43.687Z,5.00
2023-03-17T22:25:11.596Z,6.00
2023-03-17T22:27:39.505Z,6.00
2023-03-17T22:30:12.444Z,6.00
2023-03-17T22:32:41.011Z,5.50
2023-03-17T22:35:11.174Z,4.50
2023-03-17T22:37:39.128Z,5.25
2023-03-17T22:40:10.155Z,5.00
2023-03-17T22:42:38.067Z,5.75
2023-03-17T22:45:08.800Z,5.00
2023-03-17T22:47:36.708Z,5.50
2023-03-17T22:50:04.875Z,5.00
2023-03-17T22:52:34.191Z,5.00
2023-03-17T22:55:02.214Z,5.75
2023-03-17T22:57:30.108Z,5.50
2023-03-17T22:59:58.449Z,5.50
2023-03-17T23:02:26.761Z,5.00
2023-03-17T23:04:54.754Z,6.00
2023-03-17T23:07:22.697Z,5.00
2023-03-17T23:09:51.989Z,6.00
2023-03-17T23:12:23.049Z,5.00
2023-03-17T23:14:50.934Z,4.25
2023-03-17T23:17:18.915Z,4.50
2023-03-17T23:19:47.116Z,5.00
2023-03-17T23:22:15.004Z,5.00
2023-03-17T23:24:42.932Z,5.00
2023-03-17T23:27:12.563Z,5.00
2023-03-17T23:29:41.181Z,4.50
2023-03-17T23:32:10.233Z,4.00
2023-03-17T23:34:38.167Z,5.75
2023-03-17T23:37:06.250Z,4.25
2023-03-17T23:39:34.826Z,5.00
2023-03-17T23:42:04.124Z,6.00
2023-03-17T23:44:33.827Z,5.00
2023-03-17T23:47:01.745Z,5.00
2023-03-17T23:49:29.701Z,6.00
2023-03-17T23:51:58.714Z,6.00
2023-03-17T23:54:27.923Z,6.75
2023-03-17T23:56:56.068Z,6.00
2023-03-17T23:59:24.554Z,7.00
